createdAt,value
2022-12-03T00:07:24.265Z,102240.63
2022-12-03T00:14:59.337Z,102235.00
2022-12-03T00:22:33.243Z,102235.50
2022-12-03T00:30:09.713Z,102241.94
2022-12-03T00:37:44.052Z,102241.56
2022-12-03T00:45:20.827Z,102236.88
2022-12-03T00:52:54.714Z,102236.88
2022-12-03T01:00:29.795Z,102234.75
2022-12-03T01:08:03.531Z,102237.88
2022-12-03T01:15:38.908Z,102240.38
2022-12-03T01:23:12.879Z,102238.19
2022-12-03T01:31:05.700Z,102245.25
2022-12-03T01:38:39.699Z,102236.09
2022-12-03T01:46:16.672Z,102235.31
2022-12-03T01:53:51.123Z,102226.13
2022-12-03T02:01:26.463Z,102237.13
2022-12-03T02:09:00.516Z,102236.75
2022-12-03T02:16:36.101Z,102226.88
2022-12-03T02:24:18.228Z,102229.63
2022-12-03T02:31:54.125Z,102228.88
2022-12-03T02:39:28.662Z,102224.00
2022-12-03T02:47:03.999Z,102235.06
2022-12-03T02:54:37.850Z,102225.06
2022-12-03T03:02:13.701Z,102229.63
2022-12-03T03:09:47.616Z,102224.13
2022-12-03T03:17:22.790Z,102225.06
2022-12-03T03:24:56.572Z,102218.19
2022-12-03T03:32:32.258Z,102214.19
2022-12-03T03:40:07.680Z,102208.69
2022-12-03T03:47:43.771Z,102200.66
2022-12-03T03:55:19.016Z,102204.38
2022-12-03T04:02:55.149Z,102188.63
2022-12-03T04:10:46.703Z,102186.53
2022-12-03T04:18:39.441Z,102177.22
2022-12-03T04:26:30.847Z,102174.59
2022-12-03T04:34:23.452Z,102174.22
2022-12-03T04:41:57.777Z,102177.47
2022-12-03T04:49:34.050Z,102178.91
2022-12-03T04:57:08.486Z,102178.03
2022-12-03T05:04:43.709Z,102166.28
2022-12-03T05:12:17.585Z,102160.94
2022-12-03T05:20:10.633Z,102151.78
2022-12-03T05:27:44.475Z,102155.44
2022-12-03T05:35:19.749Z,102155.34
2022-12-03T05:42:57.047Z,102148.38
2022-12-03T05:50:34.076Z,102148.25
2022-12-03T05:58:07.898Z,102146.25
2022-12-03T06:05:43.080Z,102144.53
2022-12-03T06:13:16.884Z,102146.72
2022-12-03T06:20:52.184Z,102148.66
2022-12-03T06:28:26.214Z,102147.63
2022-12-03T06:36:01.294Z,102147.50
2022-12-03T06:43:35.121Z,102152.91
2022-12-03T06:51:10.507Z,102146.22
2022-12-03T06:58:44.403Z,102147.53
2022-12-03T07:06:20.059Z,102144.91
2022-12-03T07:13:53.927Z,102146.34
2022-12-03T07:21:29.397Z,102153.84
2022-12-03T07:29:03.273Z,102146.59
2022-12-03T07:36:38.454Z,102137.59
2022-12-03T07:44:14.685Z,102145.66
2022-12-03T07:51:55.155Z,102142.53
2022-12-03T07:59:29.742Z,102140.97
2022-12-03T08:07:04.953Z,102141.78
2022-12-03T08:14:39.000Z,102127.75
2022-12-03T08:22:15.598Z,102114.13
2022-12-03T08:29:49.402Z,102125.38
2022-12-03T08:37:24.915Z,102106.47
2022-12-03T08:45:41.689Z,102121.25
2022-12-03T08:53:27.992Z,102127.25
2022-12-03T09:01:15.617Z,102120.75
2022-12-03T09:08:51.251Z,102120.44
2022-12-03T09:16:25.323Z,102118.72
2022-12-03T09:24:00.746Z,102107.00
2022-12-03T09:31:34.738Z,102101.22
2022-12-03T09:39:09.961Z,102097.97
2022-12-03T09:46:44.983Z,102093.22
2022-12-03T09:54:25.015Z,102087.81
2022-12-03T10:01:59.394Z,102081.06
2022-12-03T10:09:34.784Z,102073.44
2022-12-03T10:17:09.134Z,102071.75
2022-12-03T10:24:44.989Z,102068.41
2022-12-03T10:32:18.936Z,102053.63
2022-12-03T10:40:12.750Z,102054.66
2022-12-03T10:48:04.082Z,102046.81
2022-12-03T10:55:42.147Z,102055.75
2022-12-03T11:03:23.441Z,102051.81
2022-12-03T11:11:00.972Z,102045.16
2022-12-03T11:19:00.255Z,102040.59
2022-12-03T11:27:11.885Z,102027.72
2022-12-03T11:34:47.297Z,102013.19
2022-12-03T11:42:38.196Z,102012.25
2022-12-03T11:50:21.999Z,102011.25
2022-12-03T11:57:59.434Z,101999.44
2022-12-03T12:05:36.655Z,102009.13
2022-12-03T12:13:29.651Z,102000.34
2022-12-03T12:21:43.931Z,101991.69
2022-12-03T12:29:17.955Z,101991.56
2022-12-03T12:36:53.178Z,101979.78
2022-12-03T12:44:27.266Z,101974.34
2022-12-03T12:52:02.715Z,101971.38
2022-12-03T12:59:37.002Z,101964.31
2022-12-03T13:07:13.513Z,101950.47
2022-12-03T13:14:47.555Z,101937.13
2022-12-03T13:22:25.472Z,101938.28
2022-12-03T13:30:02.896Z,101934.50
2022-12-03T13:37:40.446Z,101937.25
2022-12-03T13:45:36.324Z,101934.50
2022-12-03T13:53:20.503Z,101933.84
2022-12-03T14:00:55.306Z,101931.88
2022-12-03T14:08:31.529Z,101930.06
2022-12-03T14:16:06.018Z,101932.00
2022-12-03T14:23:41.650Z,101926.22
2022-12-03T14:31:15.892Z,101929.72
2022-12-03T14:38:51.209Z,101925.28
2022-12-03T14:46:25.447Z,101923.25
2022-12-03T14:54:00.717Z,101921.28
2022-12-03T15:01:34.987Z,101936.59
2022-12-03T15:09:12.385Z,101939.53
2022-12-03T15:16:46.394Z,101936.00
2022-12-03T15:24:21.751Z,101933.97
2022-12-03T15:31:55.743Z,101940.78
2022-12-03T15:39:31.188Z,101934.84
2022-12-03T15:47:05.062Z,101931.34
2022-12-03T15:54:41.029Z,101943.53
2022-12-03T16:02:15.122Z,101941.03
2022-12-03T16:09:53.396Z,101933.25
2022-12-03T16:17:27.738Z,101927.44
2022-12-03T16:25:03.600Z,101930.19
2022-12-03T16:32:37.590Z,101924.25
2022-12-03T16:40:13.121Z,101928.84
2022-12-03T16:47:47.023Z,101924.59
2022-12-03T16:55:22.357Z,101929.84
2022-12-03T17:03:11.640Z,101922.31
2022-12-03T17:10:46.761Z,101919.50
2022-12-03T17:18:20.988Z,101917.88
2022-12-03T17:25:56.327Z,101920.63
2022-12-03T17:33:30.075Z,101913.78
2022-12-03T17:41:05.602Z,101906.56
2022-12-03T17:48:40.924Z,101902.59
2022-12-03T17:56:16.121Z,101905.56
2022-12-03T18:03:50.307Z,101900.78
2022-12-03T18:11:26.474Z,101903.50
2022-12-03T18:19:05.999Z,101903.97
2022-12-03T18:26:42.770Z,101900.31
2022-12-03T18:34:16.604Z,101893.03
2022-12-03T18:41:52.020Z,101905.44
2022-12-03T18:49:26.230Z,101896.88
2022-12-03T18:57:01.618Z,101897.56
2022-12-03T19:04:35.632Z,101907.94
2022-12-03T19:12:14.720Z,101901.00
2022-12-03T19:19:48.964Z,101904.75
2022-12-03T19:27:24.323Z,101906.38
2022-12-03T19:34:58.218Z,101907.16
2022-12-03T19:42:33.780Z,101903.16
2022-12-03T19:50:09.545Z,101902.47
2022-12-03T19:57:44.823Z,101913.31
2022-12-03T20:05:19.253Z,101901.69
2022-12-03T20:12:54.881Z,101907.94
2022-12-03T20:20:28.948Z,101895.41
2022-12-03T20:28:04.001Z,101901.69
2022-12-03T20:35:37.874Z,101901.69
2022-12-03T20:43:13.223Z,101908.75
2022-12-03T20:50:47.132Z,101916.53
2022-12-03T20:58:22.392Z,101907.63
2022-12-03T21:06:01.496Z,101906.22
2022-12-03T21:13:38.311Z,101904.63
2022-12-03T21:21:13.505Z,101901.31
2022-12-03T21:28:51.721Z,101891.50
2022-12-03T21:36:26.715Z,101886.59
2022-12-03T21:44:02.169Z,101888.41
2022-12-03T21:51:36.278Z,101896.28
2022-12-03T21:59:11.602Z,101875.50
2022-12-03T22:06:45.496Z,101884.19
2022-12-03T22:14:21.295Z,101884.53
2022-12-03T22:21:55.122Z,101885.13
2022-12-03T22:29:30.635Z,101870.91
2022-12-03T22:37:04.816Z,101878.56
2022-12-03T22:44:39.857Z,101869.66
2022-12-03T22:52:13.840Z,101857.81
2022-12-03T22:59:49.085Z,101867.16
2022-12-03T23:07:22.911Z,101849.13
2022-12-03T23:14:58.885Z,101848.34
2022-12-03T23:22:32.872Z,101847.19
2022-12-03T23:30:09.865Z,101843.50
2022-12-03T23:37:44.543Z,101835.59
2022-12-03T23:45:20.002Z,101834.22
2022-12-03T23:52:53.887Z,101823.63
